createdAt,value
2023-01-03T00:00:44.276Z,6.10
2023-01-03T00:04:15.465Z,5.50
2023-01-03T00:07:43.415Z,6.30
2023-01-03T00:11:16.569Z,6.00
2023-01-03T00:18:10.246Z,5.80
2023-01-03T00:21:37.801Z,5.50
2023-01-03T00:25:06.164Z,5.70
2023-01-03T00:28:33.362Z,6.00
2023-01-03T00:32:03.821Z,6.00
2023-01-03T00:35:32.471Z,5.10
2023-01-03T00:38:59.758Z,4.50
2023-01-03T00:42:27.210Z,4.70
2023-01-03T00:45:54.372Z,4.50
2023-01-03T00:49:21.942Z,3.60
2023-01-03T00:52:50.547Z,4.80
2023-01-03T00:56:20.663Z,4.00
2023-01-03T00:59:47.706Z,3.70
2023-01-03T01:03:18.447Z,4.50
2023-01-03T01:06:48.234Z,4.40
2023-01-03T01:10:19.870Z,4.40
2023-01-03T01:13:47.903Z,4.30
2023-01-03T01:17:20.696Z,4.00
2023-01-03T01:20:50.542Z,3.50
2023-01-03T01:24:19.296Z,3.30
2023-01-03T01:27:47.258Z,3.50
2023-01-03T01:31:19.376Z,3.70
2023-01-03T01:34:47.102Z,3.20
2023-01-03T01:38:17.115Z,3.50
2023-01-03T01:42:05.085Z,3.60
2023-01-03T01:45:36.414Z,3.30
2023-01-03T01:49:18.920Z,2.90
2023-01-03T01:52:54.974Z,2.80
2023-01-03T01:56:27.837Z,2.80
2023-01-03T01:59:54.958Z,2.90
2023-01-03T02:03:25.090Z,3.10
2023-01-03T02:06:54.522Z,2.70
2023-01-03T02:10:28.239Z,2.90
2023-01-03T02:14:18.947Z,3.20
2023-01-03T02:17:55.663Z,3.20
2023-01-03T02:22:01.574Z,3.60
2023-01-03T02:25:58.067Z,3.00
2023-01-03T02:30:07.223Z,3.00
2023-01-03T02:33:44.479Z,3.00
2023-01-03T02:37:21.195Z,3.10
2023-01-03T02:40:52.037Z,2.90
2023-01-03T02:44:25.223Z,3.10
2023-01-03T02:47:55.995Z,2.50
2023-01-03T02:51:28.995Z,1.90
2023-01-03T02:55:00.112Z,2.00
2023-01-03T02:58:31.271Z,1.40
2023-01-03T03:01:59.459Z,1.20
2023-01-03T03:05:31.081Z,1.20
2023-01-03T03:08:59.706Z,1.40
2023-01-03T03:12:45.247Z,1.30
2023-01-03T03:16:19.334Z,1.30
2023-01-03T03:20:06.821Z,1.10
2023-01-03T03:23:56.417Z,1.40
2023-01-03T03:27:42.486Z,1.30
2023-01-03T03:31:16.874Z,1.40
2023-01-03T03:34:46.346Z,1.20
2023-01-03T03:38:15.168Z,1.60
2023-01-03T03:42:12.163Z,1.10
2023-01-03T03:45:56.475Z,1.80
2023-01-03T03:49:42.008Z,1.00
2023-01-03T03:53:11.914Z,1.30
2023-01-03T03:56:42.174Z,0.90
2023-01-03T04:00:13.567Z,1.50
2023-01-03T04:03:43.535Z,1.80
2023-01-03T04:07:10.663Z,1.50
2023-01-03T04:10:38.275Z,1.30
2023-01-03T04:14:05.379Z,1.60
2023-01-03T04:17:32.219Z,1.60
2023-01-03T04:20:58.854Z,1.50
2023-01-03T04:24:25.434Z,1.60
2023-01-03T04:27:51.953Z,1.70
2023-01-03T04:31:18.417Z,1.50
2023-01-03T04:34:45.152Z,1.40
2023-01-03T04:38:12.119Z,1.80
2023-01-03T04:41:38.618Z,2.60
2023-01-03T04:45:05.153Z,2.20
2023-01-03T04:48:31.686Z,2.10
2023-01-03T04:51:58.655Z,1.40
2023-01-03T04:55:25.505Z,1.90
2023-01-03T04:58:53.887Z,2.60
2023-01-03T05:02:20.505Z,1.80
2023-01-03T05:05:47.705Z,1.80
2023-01-03T05:09:14.335Z,1.90
2023-01-03T05:12:40.505Z,1.90
2023-01-03T05:16:12.128Z,1.90
2023-01-03T05:19:59.530Z,1.80
2023-01-03T05:23:43.624Z,1.90
2023-01-03T05:27:10.178Z,2.20
2023-01-03T05:30:36.522Z,2.40
2023-01-03T05:34:03.769Z,2.00
2023-01-03T05:37:30.228Z,2.10
2023-01-03T05:40:57.029Z,2.30
2023-01-03T05:44:23.507Z,2.30
2023-01-03T05:47:49.733Z,2.00
2023-01-03T05:51:16.719Z,1.90
2023-01-03T05:54:44.656Z,1.90
2023-01-03T05:58:13.065Z,1.80
2023-01-03T06:01:40.172Z,2.10
2023-01-03T06:05:09.008Z,1.60
2023-01-03T06:08:36.095Z,2.50
2023-01-03T06:12:02.715Z,2.60
2023-01-03T06:15:29.967Z,2.20
2023-01-03T06:18:57.530Z,3.00
2023-01-03T06:22:24.133Z,2.90
2023-01-03T06:25:50.642Z,2.70
2023-01-03T06:29:19.939Z,3.70
2023-01-03T06:32:46.810Z,3.30
2023-01-03T22:10:59.114Z,6.60
2023-01-03T22:14:33.745Z,7.10
2023-01-03T22:18:00.798Z,6.20
2023-01-03T22:21:34.017Z,6.60
2023-01-03T22:25:01.520Z,7.20
2023-01-03T22:28:28.370Z,8.40
2023-01-03T22:31:55.197Z,9.50
2023-01-03T22:35:23.182Z,7.40
2023-01-03T22:38:50.254Z,6.80
2023-01-03T22:42:20.704Z,6.00
2023-01-03T22:45:48.947Z,6.30
2023-01-03T22:49:16.432Z,7.10
2023-01-03T22:52:44.827Z,6.60
2023-01-03T22:56:17.042Z,6.40
2023-01-03T22:59:43.938Z,6.90
2023-01-03T23:03:10.965Z,6.50
2023-01-03T23:06:38.319Z,7.20
2023-01-03T23:10:08.525Z,7.20
2023-01-03T23:13:39.993Z,6.70
2023-01-03T23:17:24.632Z,5.90
2023-01-03T23:20:53.296Z,6.40
2023-01-03T23:24:22.619Z,6.40
2023-01-03T23:27:50.488Z,6.00
2023-01-03T23:31:18.052Z,7.20
2023-01-03T23:34:45.039Z,7.70
2023-01-03T23:38:13.369Z,6.80
2023-01-03T23:41:39.794Z,7.10
2023-01-03T23:45:07.841Z,7.10
2023-01-03T23:48:35.065Z,7.80
2023-01-03T23:52:01.830Z,7.30
2023-01-03T23:55:28.141Z,8.30
2023-01-03T23:58:55.286Z,6.60
